Latest Weather Observations for Cape Bruny AWS

IDT60901

Issued at 8:51 am EDT Thursday 22 February 2024 (issued every 10 minutes, with the page automatically refreshed every 10 minutes)

About weather observations | Map of Hobart area stations | Latest observations for Hobart area | Other Formats
Station Details ID: 094198 Name: CAPE BRUNY (CAPE BRUNY) Lat: -43.49 Lon: 147.14 Height: 59.7 m
Data from the previous 72 hours. | See also: Recent months at Cape Bruny AWS
Date/Time
EDT
Temp
°C
App
Temp
°C
Dew
Point
°C
Rel
Hum
%
Delta-T
°C
Wind Press
QNH
hPa
Press
MSL
hPa
Rain since
9am
mm
Dir  Spd
km/h
Gust
km/h
Spd
kts
Gust
kts
22/08:30am 22.8 20.5 14.6 60 4.9 N 20 32 11 17 1004.2 1004.1 0.0
22/08:00am 22.3 19.9 14.4 61 4.7 N 20 30 11 16 1004.4 1004.3 0.0
22/07:30am 21.7 20.3 14.6 64 4.2 NNE 15 24 8 13 1004.6 1004.5 0.0
22/07:00am 21.0 20.3 14.4 66 3.9 NNE 11 20 6 11 1004.9 1004.8 0.0
22/06:30am 21.0 21.1 14.4 66 3.9 NNE 7 15 4 8 1004.9 1004.8 0.0
22/06:00am 21.1 20.1 14.5 66 3.9 NNE 13 19 7 10 1005.2 1005.1 0.0
22/05:30am 21.1 19.6 14.3 65 4.0 NNE 15 24 8 13 1005.6 1005.5 0.0
22/05:00am 21.0 19.6 14.6 67 3.8 N 15 20 8 11 1006.1 1006.0 0.0
22/04:30am 21.3 20.7 14.5 65 4.0 N 11 17 6 9 1006.4 1006.3 0.0
22/04:00am 21.5 21.2 14.4 64 4.2 NNE 9 20 5 11 1006.6 1006.5 0.0
22/03:30am 21.8 19.6 14.4 63 4.3 NNE 19 28 10 15 1006.8 1006.7 0.0
22/03:00am 22.1 19.6 14.2 61 4.6 N 20 28 11 15 1007.1 1007.0 0.0
22/02:30am 21.8 19.5 14.2 62 4.4 N 19 30 10 16 1007.3 1007.2 0.0
22/02:00am 21.7 19.5 14.4 63 4.3 N 19 28 10 15 1007.6 1007.5 0.0
22/01:30am 21.3 19.6 14.7 66 3.9 NNW 17 22 9 12 1008.1 1008.0 0.0
22/01:00am 20.5 19.9 15.7 74 2.9 NNW 13 20 7 11 1008.4 1008.3 0.0
22/12:30am 20.6 20.6 16.2 76 2.6 NNW 11 17 6 9 1008.7 1008.6 0.0
22/12:00am 21.1 20.3 16.1 73 3.0 N 15 20 8 11 1009.1 1009.0 0.0
 
Date/Time
EDT
Temp
°C
App
Temp
°C
Dew
Point
°C
Rel
Hum
%
Delta-T
°C
Wind Press
QNH
hPa
Press
MSL
hPa
Rain since
9am
mm
Dir  Spd
km/h
Gust
km/h
Spd
kts
Gust
kts
21/11:30pm 21.8 20.6 16.1 70 3.4 N 17 20 9 11 1009.5 1009.4 0.0
21/11:00pm 22.1 21.0 16.4 70 3.5 N 17 20 9 11 1009.9 1009.8 0.0
21/10:30pm 22.2 20.8 16.5 70 3.5 N 19 22 10 12 1009.9 1009.8 0.0
21/10:00pm 22.5 21.5 16.5 69 3.7 N 17 22 9 12 1010.0 1009.9 0.0
21/09:30pm 22.6 22.0 16.6 69 3.7 N 15 20 8 11 1010.1 1010.0 0.0
21/09:00pm 21.5 22.7 15.8 70 3.4 NW 4 9 2 5 1010.0 1009.9 0.0
21/08:30pm 22.4 22.6 16.7 70 3.5 NNW 11 15 6 8 1009.9 1009.8 0.0
21/08:00pm 23.0 24.0 16.3 66 4.1 WNW 6 9 3 5 1009.7 1009.6 0.0
21/07:30pm 24.5 25.6 16.5 61 4.9 WSW 6 9 3 5 1009.7 1009.6 0.0
21/07:00pm 25.4 25.5 16.5 57 5.5 NNW 11 20 6 11 1009.7 1009.6 0.0
21/06:30pm 25.3 22.5 16.4 57 5.5 NE 26 35 14 19 1009.9 1009.8 0.0
21/06:00pm 25.8 22.6 16.4 56 5.8 NE 28 41 15 22 1010.1 1010.0 0.0
21/05:30pm 26.1 23.7 16.4 55 6.0 ENE 24 35 13 19 1010.1 1010.0 0.0
21/05:00pm 26.3 22.3 16.3 54 6.2 NE 32 43 17 23 1010.5 1010.4 0.0
21/04:30pm 27.2 23.6 16.2 51 6.8 NE 30 44 16 24 1010.9 1010.8 0.0
21/04:00pm 27.2 23.1 15.9 50 7.0 NE 32 41 17 22 1011.3 1011.2 0.0
21/03:30pm 27.6 24.4 16.2 49 7.1 ENE 28 39 15 21 1011.9 1011.8 0.0
21/03:00pm 27.8 24.5 16.1 49 7.2 NE 28 39 15 21 1012.7 1012.6 0.0
21/02:30pm 28.0 25.3 15.6 46 7.6 ENE 24 32 13 17 1013.2 1013.1 0.0
21/02:00pm 27.9 25.5 15.5 46 7.6 NE 22 32 12 17 1013.9 1013.8 0.0
21/01:30pm 27.8 25.7 16.1 49 7.2 NE 22 28 12 15 1014.2 1014.1 0.0
21/01:00pm 28.3 26.3 15.6 46 7.8 NNE 20 35 11 19 1014.5 1014.4 0.0
21/12:30pm 26.5 23.9 14.9 49 7.0 NNE 22 33 12 18 1015.0 1014.9 0.0
21/12:00pm 25.8 23.3 15.2 52 6.4 NNE 22 33 12 18 1015.6 1015.5 0.0
21/11:30am 24.3 20.9 14.7 55 5.7 NNE 26 39 14 21 1016.2 1016.2 0.0
21/11:00am 23.6 20.3 14.9 58 5.2 NNE 26 39 14 21 1016.6 1016.6 0.0
21/10:30am 23.2 20.0 15.3 61 4.7 NNE 26 39 14 21 1016.9 1016.9 0.0
21/10:00am 22.7 20.7 15.5 64 4.3 NNE 20 32 11 17 1017.0 1017.0 0.0
21/09:30am 21.2 18.8 15.3 69 3.5 NNE 22 32 12 17 1017.3 1017.3 0.0
21/09:00am 20.3 18.2 15.1 72 3.1 NNE 20 30 11 16 1017.3 1017.3 0.0
21/08:30am 18.7 16.6 14.6 77 2.4 NNE 19 30 10 16 1017.2 1017.2 0.0
21/08:00am 17.7 15.2 14.2 80 2.0 NNE 20 28 11 15 1017.3 1017.3 0.0
21/07:30am 17.1 14.5 13.8 81 1.9 N 20 32 11 17 1017.6 1017.6 0.0
21/07:00am 16.3 13.3 13.6 84 1.5 N 22 35 12 19 1017.5 1017.5 0.0
21/06:30am 16.4 13.8 13.7 84 1.5 NNE 20 30 11 16 1017.2 1017.2 0.0
21/06:00am 16.7 14.0 13.6 82 1.7 N 20 28 11 15 1017.4 1017.4 0.0
21/05:30am 16.7 14.6 13.6 82 1.8 N 17 26 9 14 1017.4 1017.4 0.0
21/05:00am 16.3 13.3 13.6 84 1.5 NNE 22 30 12 16 1017.4 1017.4 0.0
21/04:30am 16.2 13.6 13.3 83 1.6 N 19 24 10 13 1017.5 1017.5 0.0
21/04:00am 16.4 13.6 13.3 82 1.7 N 20 28 11 15 1017.4 1017.4 0.0
21/03:30am 16.4 13.3 13.3 82 1.7 NNE 22 30 12 16 1017.7 1017.7 0.0
21/03:00am 16.2 13.1 13.3 83 1.6 NNE 22 30 12 16 1017.8 1017.8 0.0
21/02:30am 16.4 13.6 13.3 82 1.7 NNE 20 32 11 17 1018.1 1018.1 0.0
21/02:00am 16.4 13.7 12.9 80 1.9 NNE 19 24 10 13 1018.4 1018.4 0.0
21/01:30am 16.4 14.1 12.9 80 1.9 NNE 17 22 9 12 1018.8 1018.8 0.0
21/01:00am 16.5 13.7 12.7 78 2.1 NNE 19 26 10 14 1018.9 1018.9 0.0
21/12:30am 16.7 13.8 12.8 78 2.2 NNE 20 26 11 14 1019.3 1019.2 0.0
21/12:00am 16.8 14.5 12.9 78 2.2 NNE 17 24 9 13 1019.3 1019.2 0.0
 
Date/Time
EDT
Temp
°C
App
Temp
°C
Dew
Point
°C
Rel
Hum
%
Delta-T
°C
Wind Press
QNH
hPa
Press
MSL
hPa
Rain since
9am
mm
Dir  Spd
km/h
Gust
km/h
Spd
kts
Gust
kts
20/11:30pm 17.1 14.2 12.8 76 2.4 NNE 20 28 11 15 1019.6 1019.5 0.0
20/11:00pm 17.1 14.6 12.2 73 2.7 NNE 17 24 9 13 1019.8 1019.7 0.0
20/10:30pm 17.1 14.5 12.0 72 2.8 N 17 22 9 12 1019.8 1019.7 0.0
20/10:00pm 17.1 15.0 12.4 74 2.6 NNE 15 17 8 9 1020.0 1019.9 0.0
20/09:30pm 17.4 15.3 12.5 73 2.7 NNE 15 19 8 10 1020.0 1019.9 0.0
20/09:00pm 17.5 15.4 12.4 72 2.8 NNE 15 17 8 9 1019.9 1019.8 0.0
20/08:30pm 18.3 17.7 12.3 68 3.3 N 7 11 4 6 1019.7 1019.6 0.0
20/08:00pm 19.3 18.2 12.1 63 4.0 NNE 9 11 5 6 1019.5 1019.4 0.0
20/07:30pm 20.1 19.1 12.3 61 4.4 NNE 9 15 5 8 1019.5 1019.4 0.0
20/07:00pm 20.8 19.3 13.0 61 4.4 ENE 13 17 7 9 1019.0 1019.0 0.0
20/06:30pm 20.5 19.1 13.5 64 4.0 ENE 13 19 7 10 1019.3 1019.2 0.0
20/06:00pm 20.9 20.6 12.8 60 4.6 SSW 6 7 3 4 1019.2 1019.1 0.0
20/05:30pm 21.6 21.1 12.2 55 5.3 SSW 6 9 3 5 1019.3 1019.2 0.0
20/05:00pm 22.3 21.3 12.3 53 5.7 SSW 9 11 5 6 1019.4 1019.3 0.0
20/04:30pm 22.9 21.7 12.8 53 5.8 S 11 13 6 7 1019.5 1019.4 0.0
20/04:00pm 22.2 21.1 13.0 56 5.3 S 11 13 6 7 1019.7 1019.6 0.0
20/03:30pm 22.9 22.1 12.8 53 5.8 SSW 9 11 5 6 1019.9 1019.8 0.0
20/03:00pm 21.3 20.3 12.2 56 5.1 S 9 13 5 7 1020.2 1020.1 0.0
20/02:30pm 21.4 19.9 12.0 55 5.3 S 11 13 6 7 1020.4 1020.3 0.0
20/02:00pm 21.6 20.7 12.7 57 5.1 SSE 9 15 5 8 1020.6 1020.5 0.0
20/01:30pm 20.5 20.2 12.7 61 4.4 SSE 6 9 3 5 1020.6 1020.5 0.0
20/01:00pm 19.7 18.8 12.7 64 3.9 SE 9 13 5 7 1020.8 1020.7 0.0
20/12:30pm 21.2 20.2 13.4 61 4.5 SE 11 15 6 8 1020.9 1020.8 0.0
20/12:00pm 21.9 20.3 12.7 56 5.2 NNE 13 20 7 11 1021.0 1020.9 0.0
20/11:30am 20.0 16.8 12.0 60 4.5 NNE 20 30 11 16 1021.2 1021.1 0.0
20/11:00am 20.0 16.8 12.0 60 4.5 N 20 30 11 16 1021.2 1021.1 0.0
20/10:30am 19.2 15.3 12.0 63 4.0 N 24 32 13 17 1021.3 1021.2 0.0
20/10:00am 19.6 15.6 11.9 61 4.3 NNE 24 35 13 19 1021.3 1021.2 0.0
20/09:30am 17.5 13.0 11.3 67 3.4 NNE 26 39 14 21 1021.4 1021.3 0.0
20/09:00am 16.6 12.5 11.5 72 2.8 NNE 24 33 13 18 1021.4 1021.3 0.2
20/08:30am 17.1 13.0 11.6 70 3.0 NNE 24 35 13 19 1021.4 1021.3 0.2
20/08:00am 16.0 11.9 11.6 75 2.4 NNE 24 37 13 20 1021.3 1021.2 0.2
20/07:30am 15.5 11.4 11.3 76 2.3 NNE 24 32 13 17 1021.2 1021.1 0.2
20/07:00am 15.5 11.7 11.1 75 2.3 NNE 22 32 12 17 1021.3 1021.2 0.2
20/06:30am 15.3 11.0 10.7 74 2.4 NNE 24 37 13 20 1021.2 1021.1 0.2
20/06:00am 15.2 11.3 10.8 75 2.3 NNE 22 35 12 19 1021.1 1021.0 0.2
20/05:30am 15.0 11.4 10.6 75 2.3 NNE 20 28 11 15 1021.1 1021.0 0.2
20/05:00am 14.9 11.4 10.3 74 2.4 NNE 19 32 10 17 1021.3 1021.2 0.2
20/04:30am 15.0 12.3 10.2 73 2.5 NNE 15 24 8 13 1021.6 1021.5 0.2
20/04:00am 14.8 12.1 10.2 74 2.4 NNE 15 22 8 12 1021.7 1021.6 0.2
20/03:30am 14.3 11.9 9.9 75 2.3 NE 13 22 7 12 1021.8 1021.7 0.2
20/03:00am 14.2 12.1 9.6 74 2.4 NE 11 19 6 10 1022.1 1022.0 0.2
20/02:30am 14.1 11.2 9.5 74 2.4 NE 15 22 8 12 1022.3 1022.2 0.2
20/02:00am 14.0 11.0 9.2 73 2.4 NE 15 20 8 11 1022.5 1022.4 0.2
20/01:30am 14.3 10.9 9.1 71 2.7 NE 17 24 9 13 1022.8 1022.7 0.2
20/01:00am 14.3 10.9 9.1 71 2.6 NE 17 24 9 13 1023.2 1023.1 0.2
20/12:30am 14.2 11.5 8.8 70 2.7 NE 13 19 7 10 1023.3 1023.2 0.2
20/12:00am 14.1 10.9 8.5 69 2.8 NE 15 20 8 11 1023.6 1023.5 0.2
 
Date/Time
EDT
Temp
°C
App
Temp
°C
Dew
Point
°C
Rel
Hum
%
Delta-T
°C
Wind Press
QNH
hPa
Press
MSL
hPa
Rain since
9am
mm
Dir  Spd
km/h
Gust
km/h
Spd
kts
Gust
kts
19/11:30pm 13.9 11.4 8.1 68 2.9 NE 11 17 6 9 1023.8 1023.7 0.2
19/11:00pm 13.8 11.2 7.8 67 3.0 NE 11 15 6 8 1023.9 1023.8 0.2
19/10:30pm 13.7 11.1 7.9 68 2.9 NE 11 17 6 9 1024.1 1024.0 0.2
19/10:00pm 13.8 10.2 8.2 69 2.8 ENE 17 22 9 12 1024.1 1024.0 0.2
19/09:30pm 13.3 10.4 8.2 71 2.5 ENE 13 20 7 11 1024.1 1024.0 0.2
19/09:00pm 12.7 9.3 7.6 71 2.5 ENE 15 17 8 9 1023.8 1023.7 0.2
19/08:30pm 13.4 9.6 7.6 68 2.9 E 17 24 9 13 1023.4 1023.3 0.2
19/08:00pm 13.8 9.5 7.8 67 3.0 E 20 26 11 14 1023.3 1023.2 0.2
19/07:30pm 14.3 10.1 7.4 63 3.4 ESE 19 24 10 13 1023.0 1022.9 0.2
19/07:00pm 14.9 10.5 7.5 61 3.7 ESE 20 26 11 14 1022.9 1022.8 0.2
19/06:30pm 15.5 11.0 7.0 57 4.2 ESE 20 24 11 13 1022.8 1022.7 0.2
19/06:00pm 16.0 11.6 7.2 56 4.4 ESE 20 28 11 15 1022.8 1022.7 0.2
19/05:30pm 16.9 12.7 7.5 54 4.7 ESE 19 24 10 13 1022.9 1022.8 0.2
19/05:00pm 17.1 13.2 6.9 51 5.1 SE 17 26 9 14 1022.8 1022.7 0.2
19/04:30pm 17.3 13.4 7.1 51 5.1 SSE 17 26 9 14 1022.7 1022.6 0.2
19/04:00pm 17.2 13.3 7.0 51 5.1 S 17 22 9 12 1023.0 1022.9 0.2
19/03:30pm 17.0 12.7 7.1 52 4.9 S 19 26 10 14 1023.1 1023.0 0.2
19/03:00pm 17.4 12.8 8.3 55 4.6 SSE 22 28 12 15 1023.3 1023.2 0.2
19/02:30pm 17.6 13.4 7.6 52 5.1 SSE 19 26 10 14 1023.3 1023.2 0.2
19/02:00pm 17.5 13.0 8.6 56 4.6 S 22 28 12 15 1023.2 1023.1 0.0
19/01:30pm 17.8 13.9 8.6 55 4.8 S 19 26 10 14 1023.3 1023.2 0.0
19/01:00pm 17.1 12.5 8.0 55 4.6 SW 22 33 12 18 1023.4 1023.3 0.0
19/12:30pm 16.7 12.2 8.4 58 4.2 SW 22 32 12 17 1023.4 1023.3 0.0
19/12:00pm 15.8 10.1 8.5 62 3.7 SW 28 37 15 20 1023.4 1023.3 0.0
19/11:30am 15.0 9.2 8.0 63 3.5 SW 28 39 15 21 1023.3 1023.2 0.0
19/11:00am 13.9 8.7 8.7 71 2.6 SW 26 35 14 19 1023.1 1023.0 0.0
19/10:30am 14.7 10.3 10.5 76 2.2 SW 24 39 13 21 1022.7 1022.6 0.0
19/10:00am 13.7 10.0 10.1 79 1.9 SW 20 30 11 16 1022.3 1022.2 0.0
19/09:30am 13.1 9.1 10.3 83 1.5 SW 22 32 12 17 1022.1 1022.0 0.0
19/09:00am 12.9 8.7 11.0 88 1.0 WSW 24 35 13 19 1021.8 1021.7 1.6

Latest Capital City Observations: Canberra | Sydney | Melbourne | Brisbane | Adelaide | Perth | Hobart | Darwin

Other formats

Comma delimited format used in spreadsheet applications
http://www.bom.gov.au/fwo/IDT60901/IDT60901.95967.axf

JavaScript Object Notation format (JSON) in row-major order
http://www.bom.gov.au/fwo/IDT60901/IDT60901.95967.json

Data quality

Most of these data are generated automatically and are frequently updated. Quality checks on data are not normally performed. It is possible for incorrect values to appear. Refer to information at About Latest Weather Observations and please check the disclaimer before using these data.